首页
METAR-TAF:

METAR-TAF

机场 :

斯普林博克, 南非共和國

纬度: 29-40S, 经度: 17-53E, 海拔: 1006米

当前天气观测

该预报发布于46分钟前的09:41 UTC
风速3节,风向东转东北
温度 11°C
湿度 54%
气压 1026 hPa
能见度10公里或以上
少量云层高于2000英尺

METAR: FASB 200941Z 07003KT 9999 FEW020 11/02 Q1026

时间: 12:27 (10:27 UTC)


TAF: 丢失

超过4000个机场的气象观测和天气预报(METAR&TAF报告)。

可查询的气象台以黄色和红色小点在地图上表示。

将鼠标移到小点上方,可查看气象台名称。

然后点击查看天气观测和预报。

如需切换地图:点击带黑十字的绿色按钮放大地图;点击带横线的绿色按钮缩小地图;或者点击绿色箭头查看邻近地区的地图。


METAR-TAF: